Time;durP1;ratioP1;P1;durP2;ratioP2;P2;SDS_P1;SDS_P2;PMS_P1;PMS_P2;Temp;Humidity;BMP_temperature;BMP_pressure;BME280_temperature;BME280_humidity;BME280_pressure;Samples;Min_cycle;Max_cycle;Signal;HPM_P1;HPM_P2
2022/05/18 00:00:29;;;;;;;15.00;4.32;;;;;;;17.94;73.64;101655.03;4975406;28;20106;-78
2022/05/18 00:03:04;;;;;;;14.65;4.53;;;;;;;17.86;73.46;101662.56;4975423;28;20050;-80
2022/05/18 00:05:31;;;;;;;14.13;4.55;;;;;;;17.80;73.99;101660.84;4975861;28;20039;-76
2022/05/18 00:07:57;;;;;;;8.73;4.15;;;;;;;17.78;74.51;101662.16;4959473;28;20039;-79
2022/05/18 00:10:22;;;;;;;11.05;4.47;;;;;;;17.76;74.48;101662.41;4976142;28;20026;-77
2022/05/18 00:12:49;;;;;;;13.10;4.82;;;;;;;17.75;74.47;101666.22;4975973;28;20030;-76
2022/05/18 00:15:18;;;;;;;9.63;4.35;;;;;;;17.78;74.64;101667.63;4974895;28;20023;-77
2022/05/18 00:17:44;;;;;;;9.68;4.38;;;;;;;17.71;73.95;101673.31;4975858;28;20043;-77
2022/05/18 00:20:10;;;;;;;11.23;4.40;;;;;;;17.66;74.37;101670.50;4976660;28;20126;-78
2022/05/18 00:22:57;;;;;;;13.43;4.47;;;;;;;17.65;74.56;101668.84;4974683;28;20089;-76
2022/05/18 00:25:26;;;;;;;10.18;4.57;;;;;;;17.60;74.37;101666.03;4974791;28;20041;-78
2022/05/18 00:27:52;;;;;;;10.85;4.43;;;;;;;17.54;75.74;101674.19;4975483;28;20042;-78
2022/05/18 00:30:19;;;;;;;11.20;4.20;;;;;;;17.52;75.60;101670.84;4991205;28;20027;-76
2022/05/18 00:32:45;;;;;;;11.27;4.70;;;;;;;17.52;75.26;101673.59;4969440;28;20039;-76
2022/05/18 00:35:11;;;;;;;12.32;4.47;;;;;;;17.47;75.52;101670.78;4976080;28;20387;-76
2022/05/18 00:37:37;;;;;;;15.18;5.00;;;;;;;17.43;75.81;101683.31;4975850;28;20030;-78
2022/05/18 00:40:03;;;;;;;11.40;5.07;;;;;;;17.45;75.85;101675.69;4976157;28;20030;-78
2022/05/18 00:42:28;;;;;;;9.93;4.50;;;;;;;17.36;76.09;101672.53;4974102;28;20035;-78
2022/05/18 00:44:54;;;;;;;13.27;4.63;;;;;;;17.40;76.15;101677.50;4975327;28;20238;-77
2022/05/18 00:47:20;;;;;;;12.48;4.57;;;;;;;17.35;76.06;101675.53;4975749;28;20034;-78
2022/05/18 00:49:51;;;;;;;12.13;4.82;;;;;;;17.32;75.54;101681.50;4975442;28;20035;-78
2022/05/18 00:52:22;;;;;;;15.60;5.05;;;;;;;17.30;75.93;101679.03;4975562;28;20042;-78
2022/05/18 00:54:50;;;;;;;10.48;4.35;;;;;;;17.32;76.31;101671.38;4974860;28;20060;-77
2022/05/18 00:57:21;;;;;;;15.35;4.63;;;;;;;17.29;76.63;101671.06;4975557;28;20042;-76
2022/05/18 00:59:52;;;;;;;14.10;4.65;;;;;;;17.29;76.56;101676.53;4975345;28;20030;-78
2022/05/18 01:02:21;;;;;;;10.60;4.55;;;;;;;17.27;77.11;101667.72;4972667;28;20051;-75
2022/05/18 01:04:49;;;;;;;11.68;4.57;;;;;;;17.22;77.26;101676.69;4974883;28;20030;-76
2022/05/18 01:07:20;;;;;;;10.95;4.70;;;;;;;17.14;76.76;101669.72;4975533;28;20038;-76
2022/05/18 01:09:47;;;;;;;14.90;5.13;;;;;;;17.15;77.28;101679.59;4975443;28;20030;-77
2022/05/18 01:12:16;;;;;;;12.52;4.60;;;;;;;17.10;76.96;101679.50;4975316;28;20281;-77
2022/05/18 01:14:47;;;;;;;13.55;5.07;;;;;;;17.08;77.50;101676.19;4975219;28;20035;-77
2022/05/18 01:17:14;;;;;;;11.85;4.80;;;;;;;17.11;77.61;101678.44;4975011;28;20058;-77
2022/05/18 01:19:49;;;;;;;9.57;4.47;;;;;;;17.09;77.51;101677.88;4974838;28;20050;-77
2022/05/18 01:22:39;;;;;;;13.88;4.85;;;;;;;17.10;77.58;101670.47;4975233;28;20035;-76
2022/05/18 01:25:16;;;;;;;13.73;5.22;;;;;;;17.12;77.44;101676.53;4974693;28;20100;-77
2022/05/18 01:27:41;;;;;;;8.75;4.60;;;;;;;17.04;77.60;101669.56;4974605;28;20423;-78
2022/05/18 01:30:08;;;;;;;13.27;4.70;;;;;;;17.11;77.82;101674.88;4973827;28;20046;-77
2022/05/18 01:32:46;;;;;;;11.70;5.25;;;;;;;17.03;77.46;101667.94;4990405;28;20018;-77
2022/05/18 01:35:17;;;;;;;14.07;4.95;;;;;;;16.98;78.12;101667.81;4987452;28;20039;-77
2022/05/18 01:37:42;;;;;;;16.33;4.93;;;;;;;17.03;78.36;101672.53;4974628;28;20034;-76
2022/05/18 01:40:13;;;;;;;13.52;4.82;;;;;;;16.98;78.17;101676.03;4973509;28;20285;-78
2022/05/18 01:42:47;;;;;;;12.57;4.78;;;;;;;16.97;77.45;101671.66;4974804;28;20103;-76
2022/05/18 01:45:13;;;;;;;15.65;5.00;;;;;;;16.95;78.41;101676.53;4974671;28;20035;-77
2022/05/18 01:47:40;;;;;;;16.98;5.43;;;;;;;16.85;77.90;101674.44;4974020;28;20094;-77
2022/05/18 01:50:10;;;;;;;12.90;4.68;;;;;;;16.90;77.91;101676.44;4973937;28;20030;-77
2022/05/18 01:52:36;;;;;;;14.63;4.78;;;;;;;16.84;78.48;101670.84;4957724;28;20050;-77
2022/05/18 01:55:02;;;;;;;11.05;4.75;;;;;;;16.86;78.79;101673.31;4974636;28;20035;-78
2022/05/18 01:57:28;;;;;;;9.52;5.05;;;;;;;16.91;78.62;101669.88;4974717;28;20034;-76
2022/05/18 01:59:53;;;;;;;13.60;4.75;;;;;;;16.91;79.45;101670.72;4974332;28;20881;-76
2022/05/18 02:02:18;;;;;;;11.32;5.40;;;;;;;16.80;78.87;101669.69;4970950;28;20053;-76
2022/05/18 02:04:44;;;;;;;11.32;4.93;;;;;;;16.82;78.96;101669.44;4972899;28;20027;-77
2022/05/18 02:07:11;;;;;;;14.30;5.18;;;;;;;16.78;79.70;101674.56;4957131;28;20075;-77
2022/05/18 02:09:37;;;;;;;11.68;5.03;;;;;;;16.78;79.02;101671.84;4974135;28;20031;-76
2022/05/18 02:12:04;;;;;;;10.32;4.45;;;;;;;16.79;79.66;101669.94;4972762;28;20037;-77
2022/05/18 02:14:29;;;;;;;8.60;4.95;;;;;;;16.74;79.82;101670.69;4972745;28;20126;-76
2022/05/18 02:16:54;;;;;;;13.07;5.65;;;;;;;16.71;80.02;101662.97;4973823;28;20470;-76
2022/05/18 02:19:20;;;;;;;9.43;5.07;;;;;;;16.74;80.33;101670.69;4974093;28;20058;-76
2022/05/18 02:21:45;;;;;;;13.65;5.57;;;;;;;16.71;80.58;101671.16;4973986;28;20042;-77
2022/05/18 02:24:11;;;;;;;11.35;5.63;;;;;;;16.68;80.11;101666.19;4972775;28;20081;-76
2022/05/18 02:26:36;;;;;;;12.90;5.32;;;;;;;16.70;81.20;101669.50;4971055;28;20394;-76
2022/05/18 02:29:03;;;;;;;9.60;5.47;;;;;;;16.67;80.89;101659.06;4973110;28;20043;-76
2022/05/18 02:31:28;;;;;;;8.43;5.50;;;;;;;16.71;81.01;101656.66;4973143;28;20498;-75
2022/05/18 02:33:54;;;;;;;13.65;6.55;;;;;;;16.71;81.08;101653.94;4977072;28;20085;-78
2022/05/18 02:36:19;;;;;;;10.85;5.88;;;;;;;16.75;81.34;101657.84;4989977;28;20042;-76
2022/05/18 02:38:44;;;;;;;11.70;5.70;;;;;;;16.78;81.21;101663.63;4985939;28;20042;-74
2022/05/18 02:41:11;;;;;;;9.82;6.32;;;;;;;16.76;81.71;101657.59;4973642;28;20042;-80
2022/05/18 02:43:40;;;;;;;13.10;5.95;;;;;;;16.78;81.87;101660.91;4974182;28;20038;-77
2022/05/18 02:46:10;;;;;;;9.80;5.93;;;;;;;16.84;81.41;101665.38;4974009;28;20106;-78
2022/05/18 02:48:36;;;;;;;14.75;6.40;;;;;;;16.75;82.03;101672.31;4953512;29;20055;-76
2022/05/18 02:51:01;;;;;;;8.75;5.90;;;;;;;16.75;81.89;101657.84;4969288;28;20039;-75
2022/05/18 02:53:27;;;;;;;9.48;5.90;;;;;;;16.75;81.83;101661.41;4973220;28;20126;-78
2022/05/18 02:56:07;;;;;;;12.98;6.15;;;;;;;16.77;81.45;101659.25;4972365;28;20486;-78
2022/05/18 02:58:42;;;;;;;15.95;7.00;;;;;;;16.75;81.30;101666.88;4973884;28;20030;-76
2022/05/18 03:01:10;;;;;;;13.27;6.32;;;;;;;16.70;81.83;101664.06;4970190;28;20047;-77
2022/05/18 03:03:36;;;;;;;10.63;6.38;;;;;;;16.76;81.70;101673.19;4973760;28;20094;-76
2022/05/18 03:06:04;;;;;;;8.68;6.03;;;;;;;16.76;81.82;101673.19;4973580;28;20110;-76
2022/05/18 03:08:31;;;;;;;9.93;6.90;;;;;;;16.69;81.88;101672.50;4973506;28;20557;-77
2022/05/18 03:10:56;;;;;;;15.77;6.97;;;;;;;16.76;81.94;101674.00;4973034;28;20039;-75
2022/05/18 03:13:22;;;;;;;12.05;7.05;;;;;;;16.77;81.91;101681.13;4972390;28;20033;-76
2022/05/18 03:15:47;;;;;;;13.00;7.40;;;;;;;16.76;81.21;101679.47;4971797;28;20073;-77
2022/05/18 03:18:14;;;;;;;9.90;6.85;;;;;;;16.74;81.92;101684.34;4973769;28;20042;-77
2022/05/18 03:23:33;;;;;;;11.70;7.03;;;;;;;16.83;81.71;101685.59;4973743;28;20069;-77
2022/05/18 03:25:58;;;;;;;13.57;7.38;;;;;;;16.86;82.11;101694.38;4971619;28;20031;-76
2022/05/18 03:28:24;;;;;;;13.98;7.32;;;;;;;16.83;81.68;101702.00;4974034;28;20081;-76
2022/05/18 03:30:49;;;;;;;9.90;6.50;;;;;;;16.83;81.32;101693.81;4976217;28;20039;-75
2022/05/18 03:33:14;;;;;;;16.63;7.40;;;;;;;16.91;81.32;101691.75;4977518;28;20485;-77
2022/05/18 03:35:39;;;;;;;14.27;7.25;;;;;;;16.88;81.17;101698.56;4977021;28;20046;-78
2022/05/18 03:38:05;;;;;;;17.75;7.32;;;;;;;16.90;81.37;101701.06;4976911;28;20529;-78
2022/05/18 03:40:35;;;;;;;11.65;7.18;;;;;;;16.93;81.19;101703.28;4976934;28;20059;-75
2022/05/18 03:43:00;;;;;;;11.52;6.57;;;;;;;16.90;80.94;101695.59;4976951;28;20042;-76
2022/05/18 03:45:26;;;;;;;12.00;7.00;;;;;;;16.91;80.77;101703.53;4992036;28;20038;-75
2022/05/18 03:47:51;;;;;;;9.38;6.57;;;;;;;16.86;81.32;101705.31;4977126;28;20039;-76
2022/05/18 03:50:17;;;;;;;19.10;7.18;;;;;;;16.92;81.14;101716.09;4977140;28;20034;-76
2022/05/18 03:52:43;;;;;;;13.45;6.88;;;;;;;16.92;81.38;101710.66;4985493;28;20047;-77
2022/05/18 03:55:10;;;;;;;17.20;7.38;;;;;;;16.93;80.79;101714.22;4998700;28;20025;-75
2022/05/18 03:57:35;;;;;;;13.70;6.80;;;;;;;16.98;80.90;101703.38;4992760;28;20451;-76
2022/05/18 04:00:00;;;;;;;16.63;6.85;;;;;;;17.00;80.95;101707.53;4976869;28;20041;-76
2022/05/18 04:02:25;;;;;;;9.68;6.38;;;;;;;17.02;80.67;101710.00;4974762;28;20394;-77
2022/05/18 04:04:51;;;;;;;12.07;6.63;;;;;;;17.08;80.14;101709.00;4975320;28;20045;-76
2022/05/18 04:07:16;;;;;;;13.50;7.05;;;;;;;17.16;79.07;101703.13;4976348;28;20159;-76
2022/05/18 04:09:41;;;;;;;14.07;6.75;;;;;;;17.15;79.76;101698.75;4975127;28;20035;-75
2022/05/18 04:12:08;;;;;;;9.73;6.82;;;;;;;17.23;79.56;101699.41;4976692;28;20043;-77
2022/05/18 04:14:33;;;;;;;15.48;6.82;;;;;;;17.27;79.30;101706.03;4976408;28;20042;-75
2022/05/18 04:16:58;;;;;;;13.88;6.47;;;;;;;17.32;79.69;101701.47;4976579;28;20078;-75
2022/05/18 04:19:24;;;;;;;11.13;6.30;;;;;;;17.36;79.86;101704.53;4976820;28;20114;-75
2022/05/18 04:21:49;;;;;;;11.63;6.10;;;;;;;17.45;78.58;101710.41;4976336;28;20098;-76
2022/05/18 04:24:14;;;;;;;13.27;6.22;;;;;;;17.46;78.55;101714.81;4975712;28;20471;-77
2022/05/18 04:26:40;;;;;;;10.07;5.32;;;;;;;17.52;79.09;101713.81;4979337;28;20095;-75
2022/05/18 04:29:05;;;;;;;12.50;5.43;;;;;;;17.58;78.79;101720.19;4985492;28;20047;-77
2022/05/18 04:31:30;;;;;;;9.65;5.38;;;;;;;17.64;77.88;101719.19;4975326;28;20069;-75
2022/05/18 04:33:55;;;;;;;10.38;4.63;;;;;;;17.70;76.08;101720.91;4976389;28;20438;-75
2022/05/18 04:36:21;;;;;;;9.57;5.10;;;;;;;17.72;77.13;101718.75;4976399;28;20394;-75
2022/05/18 04:38:46;;;;;;;10.02;5.30;;;;;;;17.80;75.17;101726.53;4976018;28;20023;-76
2022/05/18 04:41:11;;;;;;;6.82;4.72;;;;;;;17.80;76.05;101726.53;4974824;28;20027;-76
2022/05/18 04:43:37;;;;;;;10.00;4.80;;;;;;;17.85;76.05;101729.34;4975955;28;20034;-78
2022/05/18 04:46:03;;;;;;;8.40;4.78;;;;;;;17.94;74.79;101734.44;4975366;28;20022;-76
2022/05/18 04:48:31;;;;;;;10.35;4.95;;;;;;;17.97;74.00;101732.00;4974880;28;20053;-76
2022/05/18 04:50:56;;;;;;;9.20;4.50;;;;;;;18.02;74.06;101743.00;4975403;28;20034;-78
2022/05/18 04:53:22;;;;;;;7.78;4.43;;;;;;;17.99;74.97;101738.03;4974224;28;20069;-75
2022/05/18 04:55:48;;;;;;;9.00;4.70;;;;;;;18.04;73.06;101737.28;4974500;28;20470;-78
2022/05/18 04:58:14;;;;;;;13.48;4.68;;;;;;;18.07;73.38;101745.00;4974382;28;20066;-77
2022/05/18 05:00:40;;;;;;;9.10;4.43;;;;;;;18.10;73.59;101747.25;4973510;28;20061;-75
2022/05/18 05:03:06;;;;;;;10.23;4.88;;;;;;;18.12;73.87;101741.53;4973968;28;20066;-75
2022/05/18 05:05:31;;;;;;;9.23;4.50;;;;;;;18.15;74.77;101751.97;4975934;28;20031;-78
2022/05/18 05:07:56;;;;;;;11.30;5.25;;;;;;;18.22;73.25;101755.31;4975484;28;20054;-76
2022/05/18 05:10:22;;;;;;;7.93;4.70;;;;;;;18.26;74.08;101750.19;4975019;28;20497;-77
2022/05/18 05:12:47;;;;;;;9.82;4.60;;;;;;;18.32;73.63;101751.91;4975517;28;20038;-77
2022/05/18 05:15:14;;;;;;;10.90;4.55;;;;;;;18.35;73.42;101770.56;4973672;28;20058;-75
2022/05/18 05:17:39;;;;;;;11.18;4.50;;;;;;;18.38;74.12;101764.56;4973127;28;20030;-75
2022/05/18 05:20:06;;;;;;;5.40;4.40;;;;;;;18.47;72.15;101760.28;4989927;28;20533;-76
2022/05/18 05:22:31;;;;;;;10.35;5.03;;;;;;;18.56;71.87;101771.63;4975001;28;20495;-78
2022/05/18 05:24:56;;;;;;;6.88;4.28;;;;;;;18.58;71.16;101775.78;4973702;28;20062;-78
2022/05/18 05:27:22;;;;;;;9.45;4.78;;;;;;;18.60;71.88;101775.53;4974813;28;20031;-75
2022/05/18 05:29:47;;;;;;;10.05;4.97;;;;;;;18.64;71.63;101767.63;4973968;28;20039;-76
2022/05/18 05:32:12;;;;;;;7.40;4.47;;;;;;;18.68;72.76;101766.03;4975242;28;20039;-75
2022/05/18 05:34:38;;;;;;;7.50;5.00;;;;;;;18.72;72.19;101775.38;4976281;28;20122;-78
2022/05/18 05:37:04;;;;;;;9.57;4.20;;;;;;;18.71;72.11;101769.06;4998920;28;20026;-78
2022/05/18 05:39:29;;;;;;;10.82;4.35;;;;;;;18.82;70.79;101785.63;4989180;28;20398;-77
2022/05/18 05:41:54;;;;;;;8.52;4.38;;;;;;;18.83;71.41;101770.84;4976340;28;20112;-75
2022/05/18 05:44:20;;;;;;;6.20;4.35;;;;;;;18.88;70.67;101779.16;4975870;28;20035;-78
2022/05/18 05:46:45;;;;;;;6.82;4.35;;;;;;;18.93;72.00;101777.28;4974812;28;20050;-76
2022/05/18 05:49:11;;;;;;;8.52;4.75;;;;;;;19.04;70.73;101785.63;4972942;28;20035;-76
2022/05/18 05:51:37;;;;;;;10.43;4.93;;;;;;;19.11;69.30;101788.97;4974387;28;20447;-76
2022/05/18 05:54:02;;;;;;;8.80;4.60;;;;;;;19.16;68.88;101797.25;4974412;28;20085;-76
2022/05/18 05:56:28;;;;;;;10.73;4.13;;;;;;;19.21;70.63;101802.78;4974965;28;20034;-77
2022/05/18 05:58:53;;;;;;;12.23;4.30;;;;;;;19.30;69.10;101805.91;4974540;28;20018;-76
2022/05/18 06:01:19;;;;;;;7.72;4.25;;;;;;;19.43;69.56;101810.09;4972311;28;20055;-78
2022/05/18 06:03:45;;;;;;;6.38;4.10;;;;;;;19.48;69.18;101801.94;4974437;28;20395;-78
2022/05/18 06:06:10;;;;;;;11.15;4.10;;;;;;;19.55;68.00;101808.03;4974474;28;20499;-77
2022/05/18 06:08:37;;;;;;;9.40;3.90;;;;;;;19.57;67.61;101805.84;4974426;28;20120;-76
2022/05/18 06:11:03;;;;;;;8.82;3.63;;;;;;;19.56;68.65;101800.63;4972769;28;20117;-78
2022/05/18 06:13:29;;;;;;;9.80;4.13;;;;;;;19.59;68.60;101800.91;4967965;28;20034;-76
2022/05/18 06:15:54;;;;;;;7.80;3.90;;;;;;;19.59;69.39;101800.09;4986316;28;20522;-78
2022/05/18 06:18:20;;;;;;;8.70;3.78;;;;;;;19.63;70.47;101809.47;4976410;28;20429;-78
2022/05/18 06:20:47;;;;;;;14.43;4.15;;;;;;;19.66;68.25;101818.00;4974739;28;20066;-76
2022/05/18 06:23:13;;;;;;;13.07;4.47;;;;;;;19.68;67.92;101827.91;4973970;28;20030;-76
2022/05/18 06:25:39;;;;;;;10.32;4.13;;;;;;;19.72;67.10;101826.28;4974283;28;20486;-75
2022/05/18 06:28:06;;;;;;;8.63;4.13;;;;;;;19.72;67.38;101826.28;4974079;28;20050;-78
2022/05/18 06:30:31;;;;;;;13.20;4.40;;;;;;;19.75;66.54;101831.25;4973461;28;20113;-80
2022/05/18 06:32:57;;;;;;;14.05;3.92;;;;;;;19.76;66.92;101827.41;4973937;28;20030;-77
2022/05/18 06:35:23;;;;;;;10.20;4.30;;;;;;;19.79;66.96;101832.41;4970699;28;20035;-77
2022/05/18 06:37:51;;;;;;;13.75;4.43;;;;;;;19.81;66.71;101827.50;4964202;28;20485;-78
2022/05/18 06:40:17;;;;;;;14.30;4.20;;;;;;;19.81;65.64;101831.06;4972650;28;20089;-76
2022/05/18 06:42:43;;;;;;;14.60;4.20;;;;;;;19.85;65.12;101844.25;4974155;28;20034;-79
2022/05/18 06:45:10;;;;;;;11.90;4.38;;;;;;;19.82;65.69;101838.22;4973005;28;20089;-76
2022/05/18 06:47:35;;;;;;;14.18;4.45;;;;;;;19.84;65.55;101840.69;4974464;28;20037;-75
2022/05/18 06:50:03;;;;;;;18.00;5.43;;;;;;;19.83;65.62;101842.59;4972242;28;20034;-80
2022/05/18 06:52:28;;;;;;;13.02;4.65;;;;;;;19.83;65.33;101837.09;4972478;28;20035;-76
2022/05/18 06:54:54;;;;;;;21.67;5.00;;;;;;;19.88;65.31;101840.97;4973848;28;20033;-77
2022/05/18 06:57:19;;;;;;;18.73;4.85;;;;;;;19.88;64.21;101847.28;4971995;28;20121;-77
2022/05/18 06:59:45;;;;;;;14.60;4.72;;;;;;;19.85;64.73;101850.56;4973957;28;20046;-78
2022/05/18 07:02:10;;;;;;;23.38;6.25;;;;;;;19.86;64.09;101854.16;4971282;28;20417;-77
2022/05/18 07:04:35;;;;;;;12.18;5.75;;;;;;;19.85;64.68;101852.50;4976102;28;20053;-77
2022/05/18 07:07:01;;;;;;;15.25;5.60;;;;;;;19.90;66.23;101866.25;4977992;28;20037;-79
2022/05/18 07:09:28;;;;;;;10.35;6.25;;;;;;;19.97;65.33;101864.97;4976166;28;20042;-75
2022/05/18 07:11:53;;;;;;;22.90;7.15;;;;;;;20.08;65.85;101868.59;4977823;28;20082;-78
2022/05/18 07:14:27;;;;;;;14.32;7.35;;;;;;;20.14;65.96;101872.19;4977273;28;20031;-80
2022/05/18 07:16:54;;;;;;;19.00;7.63;;;;;;;20.09;65.81;101863.94;4977578;28;20470;-75
2022/05/18 07:19:20;;;;;;;13.35;7.82;;;;;;;20.10;67.10;101874.66;4992689;28;20037;-77
2022/05/18 07:21:47;;;;;;;17.67;8.75;;;;;;;20.06;67.21;101861.72;4977120;28;20125;-79
2022/05/18 07:24:14;;;;;;;15.82;8.40;;;;;;;20.07;67.65;101871.63;4977204;28;20030;-79
2022/05/18 07:26:39;;;;;;;13.50;7.85;;;;;;;20.10;68.53;101871.91;4976949;28;20533;-77
2022/05/18 07:29:06;;;;;;;13.85;7.97;;;;;;;20.11;68.18;101878.22;4976098;28;20066;-75
2022/05/18 07:32:08;;;;;;;16.40;7.90;;;;;;;20.11;68.96;101883.72;4978048;28;20027;-76
2022/05/18 07:34:17;;;;;;;17.45;7.57;;;;;;;20.16;69.78;101879.09;4989507;28;20808;-77
2022/05/18 07:36:43;;;;;;;16.40;7.80;;;;;;;20.14;69.13;101877.69;4977077;28;20410;-77
2022/05/18 07:39:09;;;;;;;15.10;7.53;;;;;;;20.13;69.18;101871.38;4975563;28;20039;-74
2022/05/18 07:41:36;;;;;;;15.23;8.02;;;;;;;20.11;68.93;101870.81;4975862;28;20368;-74
2022/05/18 07:44:01;;;;;;;14.40;7.93;;;;;;;20.14;70.44;101877.69;4976583;28;20035;-76
2022/05/18 07:46:26;;;;;;;11.75;7.40;;;;;;;20.10;69.16;101876.59;4977121;28;20681;-74
2022/05/18 07:48:51;;;;;;;11.23;7.25;;;;;;;20.14;70.05;101884.03;4977899;28;20050;-74
2022/05/18 07:51:17;;;;;;;16.45;8.20;;;;;;;20.22;69.56;101890.94;4988644;28;20031;-74
2022/05/18 07:53:42;;;;;;;12.93;7.50;;;;;;;20.27;70.50;101888.22;4977530;28;20035;-79
2022/05/18 07:56:08;;;;;;;12.80;7.95;;;;;;;20.41;70.74;101888.59;4976744;28;20114;-77
2022/05/18 07:58:34;;;;;;;16.05;8.13;;;;;;;20.56;69.93;101893.34;4976831;28;20039;-74
2022/05/18 08:00:59;;;;;;;20.20;7.63;;;;;;;20.55;69.80;101891.69;4974311;28;20035;-74
2022/05/18 08:03:24;;;;;;;22.25;7.93;;;;;;;20.65;69.67;101896.41;4976841;28;20134;-77
2022/05/18 08:05:50;;;;;;;11.98;7.65;;;;;;;20.71;69.34;101898.97;4976575;28;20034;-79
2022/05/18 08:08:18;;;;;;;15.45;7.60;;;;;;;20.81;70.66;101898.16;4976070;28;20138;-77
2022/05/18 08:16:13;;;;;;;15.80;8.55;;;;;;;20.90;69.55;101901.22;4977817;28;20077;-79
2022/05/18 08:18:39;;;;;;;17.38;8.82;;;;;;;20.83;69.65;101889.66;4978476;28;20046;-79
2022/05/18 08:21:04;;;;;;;16.88;8.73;;;;;;;20.92;71.28;101899.03;4977461;28;20027;-81
2022/05/18 08:23:30;;;;;;;15.52;9.13;;;;;;;21.03;70.93;101891.63;4978168;28;20042;-80
2022/05/18 08:25:57;;;;;;;19.00;10.25;;;;;;;21.03;69.55;101897.13;4977405;28;20039;-81
2022/05/18 08:28:26;;;;;;;14.85;8.98;;;;;;;21.06;70.22;101900.19;4979590;28;20038;-76
2022/05/18 08:30:54;;;;;;;15.95;9.40;;;;;;;21.15;70.11;101902.41;4986502;28;20003;-77
2022/05/18 08:33:19;;;;;;;18.27;8.82;;;;;;;21.26;70.03;101904.09;4999014;28;20023;-79
2022/05/18 08:35:45;;;;;;;11.65;7.50;;;;;;;21.33;68.49;101907.44;4998577;28;20065;-76
2022/05/18 08:38:11;;;;;;;17.20;8.55;;;;;;;21.38;68.24;101901.91;4997967;28;20078;-77
2022/05/18 08:40:51;;;;;;;14.40;8.82;;;;;;;21.32;68.22;101913.22;4982590;28;20474;-77
2022/05/18 08:43:24;;;;;;;15.45;8.55;;;;;;;21.37;68.38;101910.44;4980254;28;20039;-77
2022/05/18 08:46:13;;;;;;;16.67;8.10;;;;;;;21.40;68.18;101913.47;4976329;28;20026;-76
2022/05/18 08:48:58;;;;;;;12.20;7.97;;;;;;;21.57;68.24;101909.69;4954424;28;20105;-79
2022/05/18 08:51:38;;;;;;;15.98;8.70;;;;;;;21.58;67.74;101914.09;4976055;28;20050;-76
2022/05/18 08:54:13;;;;;;;13.05;7.50;;;;;;;21.64;67.49;101907.50;4973386;28;20114;-75
2022/05/18 08:56:41;;;;;;;12.98;7.07;;;;;;;21.71;67.36;101910.81;4975383;28;20035;-78
2022/05/18 08:59:13;;;;;;;16.60;9.07;;;;;;;21.69;67.16;101913.00;4974841;28;20033;-75
2022/05/18 09:01:45;;;;;;;14.32;7.93;;;;;;;21.79;67.92;101909.44;4976608;28;20078;-77
2022/05/18 09:04:23;;;;;;;13.95;9.13;;;;;;;21.81;66.87;101914.66;4980015;28;20042;-77
2022/05/18 09:07:12;;;;;;;13.05;7.45;;;;;;;21.91;66.67;101909.16;4976964;28;20054;-78
2022/05/18 09:10:14;;;;;;;13.75;8.02;;;;;;;21.91;66.46;101914.69;4978063;28;20045;-75
2022/05/18 09:12:43;;;;;;;21.05;8.00;;;;;;;22.00;66.64;101918.53;4991443;28;20031;-78
2022/05/18 09:15:13;;;;;;;10.40;6.90;;;;;;;22.07;65.21;101919.09;4974581;28;20382;-77
2022/05/18 09:18:23;;;;;;;17.90;8.37;;;;;;;22.12;65.19;101916.31;4975352;28;20414;-77
2022/05/18 09:20:59;;;;;;;11.73;6.75;;;;;;;22.12;64.70;101907.22;4918863;29;20310;-78
2022/05/18 09:23:45;;;;;;;9.35;5.68;;;;;;;22.20;63.99;101916.84;4933752;29;20134;-79
2022/05/18 09:26:13;;;;;;;12.20;5.25;;;;;;;22.13;62.35;101915.22;4969650;28;20578;-78
2022/05/18 09:29:01;;;;;;;10.05;4.03;;;;;;;22.15;62.59;101914.94;4975338;28;20042;-79
2022/05/18 09:32:03;;;;;;;5.78;3.60;;;;;;;22.13;61.79;101922.63;4975005;28;20492;-81
2022/05/18 09:35:12;;;;;;;8.77;4.10;;;;;;;22.19;62.55;101917.94;4973891;28;20038;-77
2022/05/18 09:37:59;;;;;;;9.60;4.05;;;;;;;22.30;61.80;101925.94;4973828;28;20027;-78
2022/05/18 09:40:29;;;;;;;9.75;3.60;;;;;;;22.37;61.16;101922.91;4974994;28;20041;-76
2022/05/18 09:43:10;;;;;;;9.77;5.22;;;;;;;22.34;60.85;101911.63;4975187;28;20113;-77
2022/05/18 09:45:38;;;;;;;16.02;4.55;;;;;;;22.47;61.49;101914.63;4973958;28;20038;-80
2022/05/18 09:48:11;;;;;;;8.82;4.10;;;;;;;22.40;60.26;101914.06;4975322;28;20406;-78
2022/05/18 09:50:39;;;;;;;6.50;3.10;;;;;;;22.46;61.52;101910.22;4974608;28;20089;-80
2022/05/18 09:53:05;;;;;;;6.53;3.03;;;;;;;22.62;59.99;101919.25;4973619;28;20035;-79
2022/05/18 09:55:31;;;;;;;8.52;3.58;;;;;;;22.65;59.79;101915.94;4989561;28;20034;-77
2022/05/18 09:58:19;;;;;;;12.05;3.40;;;;;;;22.76;60.25;101916.72;4989498;28;20516;-79
2022/05/18 10:00:45;;;;;;;4.18;2.90;;;;;;;22.82;59.15;101923.88;4972369;28;20058;-76
2022/05/18 10:08:57;;;;;;;10.90;2.30;;;;;;;22.85;58.21;101924.44;4974861;28;20410;-81
2022/05/18 10:11:30;;;;;;;6.63;2.10;;;;;;;22.85;57.95;101919.72;4973226;28;20398;-77
2022/05/18 10:14:05;;;;;;;6.28;2.10;;;;;;;22.96;57.47;101924.13;4955398;28;20427;-80
2022/05/18 10:16:38;;;;;;;7.50;1.85;;;;;;;22.87;57.41;101919.44;4973742;28;20042;-76
2022/05/18 10:19:05;;;;;;;3.55;1.85;;;;;;;22.88;57.62;101927.44;4976308;28;20042;-77
2022/05/18 10:22:10;;;;;;;4.20;2.00;;;;;;;22.91;57.92;101917.78;4976899;28;20130;-77
2022/05/18 10:25:05;;;;;;;8.02;2.33;;;;;;;22.95;57.28;101916.13;4976690;28;20078;-75
2022/05/18 10:27:36;;;;;;;6.88;2.70;;;;;;;22.98;56.55;101923.84;4984271;28;20069;-75
2022/05/18 10:30:05;;;;;;;5.57;2.33;;;;;;;23.09;56.65;101921.84;4984602;28;20037;-74
2022/05/18 10:32:32;;;;;;;8.70;2.92;;;;;;;23.05;56.01;101920.75;4974234;28;20455;-78
2022/05/18 10:34:59;;;;;;;7.82;2.50;;;;;;;23.15;56.74;101916.03;4975779;28;20027;-77
2022/05/18 10:37:34;;;;;;;6.53;2.20;;;;;;;23.26;56.56;101913.22;4973337;28;20037;-75
2022/05/18 10:40:08;;;;;;;7.72;2.60;;;;;;;23.39;56.20;101912.59;4974237;28;20042;-79
2022/05/18 10:42:54;;;;;;;6.95;3.67;;;;;;;23.35;56.18;101903.22;4973848;28;20031;-75
2022/05/18 10:45:26;;;;;;;6.88;3.30;;;;;;;23.35;55.76;101908.75;4974170;28;20046;-76
2022/05/18 10:47:53;;;;;;;9.55;3.55;;;;;;;23.39;55.96;101898.78;4974921;28;20035;-80
2022/05/18 10:50:24;;;;;;;7.40;3.40;;;;;;;23.44;55.98;101904.25;4990991;28;20030;-75
2022/05/18 10:52:53;;;;;;;7.20;3.70;;;;;;;23.49;55.83;101892.34;4979154;28;20035;-74
2022/05/18 10:55:22;;;;;;;5.85;3.15;;;;;;;23.53;55.91;101894.25;4981250;28;20027;-73
2022/05/18 10:58:02;;;;;;;7.55;3.28;;;;;;;23.70;57.17;101893.00;4967496;28;20086;-76
2022/05/18 11:00:44;;;;;;;4.65;3.30;;;;;;;23.76;56.35;101893.81;4961181;28;20028;-77
2022/05/18 11:03:50;;;;;;;6.30;2.80;;;;;;;23.88;56.49;101895.13;4982785;28;20054;-76
2022/05/18 11:06:27;;;;;;;7.40;2.92;;;;;;;23.98;54.68;101893.38;4977196;28;20050;-78
2022/05/18 11:08:58;;;;;;;5.93;3.33;;;;;;;24.03;54.29;101885.03;4973637;28;20043;-79
2022/05/18 11:11:45;;;;;;;13.45;3.78;;;;;;;24.20;54.63;101896.47;4974311;28;20034;-77
2022/05/18 11:14:35;;;;;;;6.72;3.45;;;;;;;24.19;55.04;101889.28;4973131;28;20426;-79
2022/05/18 11:17:25;;;;;;;7.43;3.77;;;;;;;24.18;54.40;101890.41;4973735;28;20113;-79
2022/05/18 11:20:05;;;;;;;10.38;3.67;;;;;;;24.28;54.31;101892.25;4973730;28;20087;-79
2022/05/18 11:22:58;;;;;;;6.70;3.13;;;;;;;24.26;54.62;101894.47;4973210;28;20030;-75
2022/05/18 11:25:40;;;;;;;8.20;3.50;;;;;;;24.26;54.76;101897.22;4944777;28;20055;-80
2022/05/18 11:28:35;;;;;;;7.72;4.07;;;;;;;24.22;54.44;101894.22;4958587;28;20031;-77
2022/05/18 11:31:20;;;;;;;7.50;2.97;;;;;;;24.39;54.72;101881.88;4979483;28;20023;-77
2022/05/18 11:34:00;;;;;;;6.05;3.03;;;;;;;24.61;54.66;101877.78;4974774;28;20097;-74
2022/05/18 11:36:26;;;;;;;8.02;3.33;;;;;;;24.69;53.46;101883.50;4979309;28;20117;-77
2022/05/18 11:39:07;;;;;;;8.20;3.60;;;;;;;24.59;53.24;101876.16;4974765;28;20490;-76
2022/05/18 11:41:53;;;;;;;;;;;;;;;24.68;53.86;101878.25;4974928;28;20027;-74
2022/05/18 11:44:39;;;;;;;7.35;3.70;;;;;;;24.65;53.15;101878.84;4974990;28;19961;-77